Time;durP1;ratioP1;P1;durP2;ratioP2;P2;SDS_P1;SDS_P2;PMS_P1;PMS_P2;Temp;Humidity;BMP_temperature;BMP_pressure;BME280_temperature;BME280_humidity;BME280_pressure;Samples;Min_cycle;Max_cycle;Signal;HPM_P1;HPM_P2
2022/10/27 00:02:23;;;;;;;8.65;3.75;;;15.40;99.90;;;;;;5097396;28;20040;-67
2022/10/27 00:04:49;;;;;;;6.97;3.60;;;15.40;99.90;;;;;;5097602;28;20028;-66
2022/10/27 00:07:15;;;;;;;6.35;3.35;;;15.40;99.90;;;;;;5097644;28;20024;-67
2022/10/27 00:09:41;;;;;;;9.90;3.42;;;15.30;99.90;;;;;;5097026;28;20094;-66
2022/10/27 00:12:06;;;;;;;8.68;3.60;;;15.30;99.90;;;;;;5079757;28;20032;-67
2022/10/27 00:14:32;;;;;;;8.65;3.47;;;15.30;99.90;;;;;;5096653;28;20028;-67
2022/10/27 00:16:58;;;;;;;6.50;2.88;;;15.40;99.90;;;;;;5096914;28;20028;-66
2022/10/27 00:19:24;;;;;;;4.88;3.03;;;15.30;99.90;;;;;;5097303;28;20434;-67
2022/10/27 00:21:50;;;;;;;8.38;3.10;;;15.40;99.90;;;;;;5097658;28;20027;-66
2022/10/27 00:24:17;;;;;;;8.13;3.42;;;15.30;99.90;;;;;;5097091;28;20032;-67
2022/10/27 00:26:43;;;;;;;8.13;3.08;;;15.30;99.90;;;;;;5097128;28;20078;-66
2022/10/27 00:29:09;;;;;;;5.72;2.78;;;15.30;99.90;;;;;;5079450;28;20059;-67
2022/10/27 00:31:35;;;;;;;6.43;2.63;;;15.30;99.90;;;;;;5096429;28;20403;-67
2022/10/27 00:34:00;;;;;;;5.50;2.80;;;15.30;99.90;;;;;;5079442;28;20052;-66
2022/10/27 00:36:26;;;;;;;7.50;3.00;;;15.20;99.90;;;;;;5097086;28;20031;-66
2022/10/27 00:38:53;;;;;;;6.97;3.05;;;15.10;99.90;;;;;;5096958;28;20036;-67
2022/10/27 00:41:38;;;;;;;6.53;2.63;;;15.10;99.90;;;;;;5096700;28;20039;-67
2022/10/27 00:44:32;;;;;;;7.00;2.90;;;15.10;99.90;;;;;;5096093;28;20095;-67
2022/10/27 00:47:25;;;;;;;6.85;2.95;;;15.10;99.90;;;;;;5079327;28;20028;-67
2022/10/27 00:49:55;;;;;;;6.28;2.25;;;15.10;99.90;;;;;;5097160;28;20099;-66
2022/10/27 00:52:38;;;;;;;6.70;2.50;;;15.00;99.90;;;;;;5096143;28;20024;-67
2022/10/27 00:55:33;;;;;;;4.82;2.53;;;15.10;99.90;;;;;;5096774;28;20028;-67
2022/10/27 00:58:02;;;;;;;7.43;2.83;;;15.10;99.90;;;;;;5095856;28;20051;-67
2022/10/27 01:00:28;;;;;;;7.22;2.90;;;15.10;99.90;;;;;;5096794;28;20181;-67
2022/10/27 01:02:54;;;;;;;7.18;3.05;;;15.10;99.90;;;;;;5096671;28;20439;-67
2022/10/27 01:05:23;;;;;;;5.22;2.50;;;15.10;99.90;;;;;;5095927;28;20322;-67
2022/10/27 01:07:51;;;;;;;8.18;3.17;;;15.00;99.90;;;;;;5096732;28;20054;-67
2022/10/27 01:10:17;;;;;;;7.85;2.55;;;15.00;99.90;;;;;;5098947;28;20036;-67
2022/10/27 01:12:44;;;;;;;10.10;2.70;;;15.00;99.90;;;;;;5100022;28;20164;-67
2022/10/27 01:15:10;;;;;;;6.60;3.45;;;15.00;99.90;;;;;;5100966;28;20190;-67
2022/10/27 01:17:52;;;;;;;7.05;3.35;;;14.90;99.90;;;;;;5101335;28;20051;-67
2022/10/27 01:20:23;;;;;;;8.48;2.80;;;14.90;99.90;;;;;;5100021;28;20463;-67
2022/10/27 01:23:12;;;;;;;10.93;3.03;;;14.90;99.90;;;;;;5099799;28;20036;-67
2022/10/27 01:25:56;;;;;;;7.18;2.65;;;14.90;99.90;;;;;;5100634;28;20031;-67
2022/10/27 01:28:43;;;;;;;6.57;2.78;;;14.90;99.90;;;;;;5099866;28;20032;-67
2022/10/27 01:31:13;;;;;;;5.75;2.70;;;15.00;99.90;;;;;;5099894;28;20035;-67
2022/10/27 01:33:55;;;;;;;4.72;2.83;;;15.00;99.90;;;;;;5082699;28;20074;-67
2022/10/27 01:36:31;;;;;;;6.50;2.70;;;15.00;99.90;;;;;;5099980;28;20374;-66
2022/10/27 01:39:15;;;;;;;8.07;2.95;;;14.90;99.90;;;;;;5100108;28;20071;-67
2022/10/27 01:41:56;;;;;;;8.07;2.67;;;14.80;99.90;;;;;;5099372;28;20118;-67
2022/10/27 01:44:45;;;;;;;6.95;2.80;;;14.80;99.90;;;;;;5099531;28;20053;-67
2022/10/27 01:47:12;;;;;;;6.45;3.05;;;14.80;99.90;;;;;;5100170;28;20028;-66
2022/10/27 01:49:39;;;;;;;5.75;2.80;;;14.80;99.90;;;;;;5099559;28;20054;-66
2022/10/27 01:52:07;;;;;;;6.10;2.88;;;14.80;99.90;;;;;;5099361;28;20032;-66
2022/10/27 01:54:35;;;;;;;8.38;3.10;;;14.80;99.90;;;;;;5082700;28;20035;-66
2022/10/27 01:57:16;;;;;;;6.78;3.15;;;14.80;99.90;;;;;;5099849;28;20071;-66
2022/10/27 01:59:59;;;;;;;9.05;3.13;;;14.80;99.90;;;;;;5099404;28;20031;-66
2022/10/27 02:02:40;;;;;;;5.95;2.83;;;14.70;99.90;;;;;;5100008;28;20504;-66
2022/10/27 02:05:35;;;;;;;6.72;2.90;;;14.70;99.90;;;;;;5099903;28;20031;-66
2022/10/27 02:08:16;;;;;;;9.95;3.20;;;14.70;99.90;;;;;;5090795;28;20083;-66
2022/10/27 02:11:03;;;;;;;7.38;3.10;;;14.80;99.90;;;;;;5098923;28;20361;-66
2022/10/27 02:13:37;;;;;;;8.50;3.40;;;14.70;99.90;;;;;;5099746;28;20403;-66
2022/10/27 02:16:25;;;;;;;6.07;3.10;;;14.70;99.90;;;;;;5098943;28;20036;-66
2022/10/27 02:18:56;;;;;;;7.15;3.75;;;14.70;99.90;;;;;;5099535;28;20051;-66
2022/10/27 02:21:24;;;;;;;6.35;3.67;;;14.60;99.90;;;;;;5098988;28;20200;-66
2022/10/27 02:23:51;;;;;;;8.07;3.88;;;14.70;99.90;;;;;;5100065;28;20020;-66
2022/10/27 02:26:30;;;;;;;9.82;4.18;;;14.70;99.90;;;;;;5098996;28;20303;-66
2022/10/27 02:29:03;;;;;;;9.98;4.60;;;14.70;99.90;;;;;;5099594;28;20031;-67
2022/10/27 02:31:33;;;;;;;;;;;14.70;99.90;;;;;;5099295;28;20036;-66
2022/10/27 02:34:00;;;;;;;6.90;4.60;;;14.60;99.90;;;;;;5099385;28;19915;-66
2022/10/27 02:36:26;;;;;;;9.77;4.68;;;14.60;99.90;;;;;;5098743;28;20051;-66
2022/10/27 02:38:52;;;;;;;7.13;4.47;;;14.60;99.90;;;;;;5098741;28;20056;-66
2022/10/27 02:41:17;;;;;;;10.98;5.30;;;14.60;99.90;;;;;;5098588;28;20039;-66
2022/10/27 02:43:43;;;;;;;5.88;4.50;;;14.60;99.90;;;;;;5099343;28;20344;-67
2022/10/27 02:46:09;;;;;;;10.43;4.60;;;14.60;99.90;;;;;;5099345;28;20021;-66
2022/10/27 02:48:35;;;;;;;8.80;4.45;;;14.50;99.90;;;;;;5099257;28;20082;-66
2022/10/27 02:51:00;;;;;;;7.43;4.00;;;14.50;99.90;;;;;;5099128;28;20104;-66
2022/10/27 02:53:26;;;;;;;8.25;4.13;;;14.50;99.90;;;;;;5081510;28;20392;-66
2022/10/27 02:55:52;;;;;;;7.32;3.90;;;14.50;99.90;;;;;;5098277;28;20034;-66
2022/10/27 02:58:18;;;;;;;8.60;3.83;;;14.50;99.90;;;;;;5098046;28;20048;-66
2022/10/27 03:00:43;;;;;;;6.25;3.78;;;14.40;99.90;;;;;;5098097;28;20086;-66
2022/10/27 03:03:09;;;;;;;8.65;3.42;;;14.40;99.90;;;;;;5098003;28;20047;-66
2022/10/27 03:05:35;;;;;;;8.85;3.60;;;14.40;99.90;;;;;;5098130;28;20134;-67
2022/10/27 03:08:01;;;;;;;8.63;3.45;;;14.40;99.90;;;;;;5099335;28;20089;-66
2022/10/27 03:10:26;;;;;;;8.20;3.20;;;14.50;99.90;;;;;;5097837;28;20020;-66
2022/10/27 03:12:52;;;;;;;7.78;3.55;;;14.40;99.90;;;;;;5098599;28;20062;-66
2022/10/27 03:15:18;;;;;;;8.88;3.17;;;14.40;99.90;;;;;;5098631;28;20110;-66
2022/10/27 03:17:45;;;;;;;5.72;3.05;;;14.50;99.90;;;;;;5098513;28;20120;-66
2022/10/27 03:20:12;;;;;;;5.70;2.92;;;14.50;99.90;;;;;;5098736;28;20040;-67
2022/10/27 03:22:39;;;;;;;6.65;2.83;;;14.50;99.90;;;;;;5098474;28;20089;-66
2022/10/27 03:25:05;;;;;;;3.63;2.40;;;14.40;99.90;;;;;;5098488;28;20342;-66
2022/10/27 03:27:31;;;;;;;5.22;2.63;;;14.40;99.90;;;;;;5098263;28;20041;-66
2022/10/27 03:29:57;;;;;;;5.10;2.80;;;14.50;99.90;;;;;;5098295;28;20024;-66
2022/10/27 03:32:23;;;;;;;8.63;2.65;;;14.50;99.90;;;;;;5096724;28;20043;-66
2022/10/27 03:34:49;;;;;;;4.90;1.95;;;14.50;99.90;;;;;;5098224;28;20024;-66
2022/10/27 03:37:14;;;;;;;5.70;2.70;;;14.40;99.90;;;;;;5098017;28;20039;-66
2022/10/27 03:39:40;;;;;;;5.85;2.53;;;14.40;99.90;;;;;;5080473;28;20028;-66
2022/10/27 03:42:06;;;;;;;6.70;2.35;;;14.40;99.90;;;;;;5080333;28;20072;-66
2022/10/27 03:44:32;;;;;;;6.40;2.30;;;14.40;99.90;;;;;;5097287;28;20046;-66
2022/10/27 03:46:57;;;;;;;7.47;2.58;;;14.40;99.90;;;;;;5097626;28;20115;-66
2022/10/27 03:49:23;;;;;;;6.90;2.35;;;14.30;99.90;;;;;;5097902;28;20119;-66
2022/10/27 03:51:49;;;;;;;5.03;2.67;;;14.30;99.90;;;;;;5097922;28;20052;-66
2022/10/27 03:54:15;;;;;;;4.47;2.40;;;14.20;99.90;;;;;;5097868;28;20093;-66
2022/10/27 03:56:41;;;;;;;5.53;2.28;;;14.20;99.90;;;;;;5097003;28;20052;-67
2022/10/27 03:59:08;;;;;;;4.30;2.15;;;14.20;99.90;;;;;;5097613;28;20093;-67
2022/10/27 04:01:35;;;;;;;5.13;2.25;;;14.10;99.90;;;;;;5098110;28;20036;-66
2022/10/27 04:04:03;;;;;;;4.30;2.20;;;14.20;99.90;;;;;;5096819;28;20081;-66
2022/10/27 04:06:30;;;;;;;11.73;2.72;;;14.20;99.90;;;;;;5097601;28;20062;-66
2022/10/27 04:08:56;;;;;;;7.38;2.67;;;14.10;99.90;;;;;;5097622;28;20387;-68
2022/10/27 04:11:22;;;;;;;3.65;2.22;;;14.20;99.90;;;;;;5097601;28;20028;-67
2022/10/27 04:13:47;;;;;;;8.82;2.95;;;14.10;99.90;;;;;;5097474;28;20043;-67
2022/10/27 04:16:13;;;;;;;7.97;3.47;;;14.10;99.90;;;;;;5097489;28;20047;-67
2022/10/27 04:18:39;;;;;;;9.95;3.80;;;14.10;99.90;;;;;;5097290;28;20403;-67
2022/10/27 04:21:05;;;;;;;5.55;3.58;;;14.00;99.90;;;;;;5096627;28;20039;-67
2022/10/27 04:23:31;;;;;;;6.22;2.92;;;14.00;99.90;;;;;;5097870;28;20043;-67
2022/10/27 04:25:57;;;;;;;5.90;2.80;;;13.90;99.90;;;;;;5097281;28;20024;-67
2022/10/27 04:28:23;;;;;;;4.28;2.83;;;13.90;99.90;;;;;;5096648;28;20040;-69
2022/10/27 04:30:49;;;;;;;6.40;2.88;;;13.90;99.90;;;;;;5096458;28;20276;-67
2022/10/27 04:33:15;;;;;;;4.95;2.85;;;13.80;99.90;;;;;;5079769;28;20272;-67
2022/10/27 04:35:41;;;;;;;7.35;2.65;;;13.80;99.90;;;;;;5079749;28;20360;-67
2022/10/27 04:38:07;;;;;;;5.07;2.42;;;13.90;99.90;;;;;;5096509;28;20035;-67
2022/10/27 04:40:33;;;;;;;3.13;2.17;;;13.80;99.90;;;;;;5097099;28;20036;-67
2022/10/27 04:42:58;;;;;;;8.00;3.70;;;13.80;99.90;;;;;;5096733;28;20028;-67
2022/10/27 04:45:24;;;;;;;9.50;3.90;;;13.80;99.90;;;;;;5096510;28;20078;-67
2022/10/27 04:47:50;;;;;;;8.88;3.78;;;13.90;99.90;;;;;;5096277;28;20490;-67
2022/10/27 04:50:16;;;;;;;5.75;3.10;;;13.80;99.90;;;;;;5096951;28;20025;-67
2022/10/27 04:52:52;;;;;;;5.50;3.08;;;13.80;99.90;;;;;;5096976;28;20123;-67
2022/10/27 04:55:18;;;;;;;6.75;3.13;;;13.80;99.90;;;;;;5096282;28;20047;-67
2022/10/27 04:57:44;;;;;;;6.85;2.90;;;13.70;99.90;;;;;;5096814;28;20048;-66
2022/10/27 05:00:10;;;;;;;6.72;2.80;;;13.70;99.90;;;;;;5097403;28;20028;-66
2022/10/27 05:02:36;;;;;;;6.45;2.70;;;13.60;99.90;;;;;;5096370;28;20032;-66
2022/10/27 05:05:01;;;;;;;4.60;2.40;;;13.60;99.90;;;;;;5079539;28;20352;-67
2022/10/27 05:07:27;;;;;;;4.40;2.60;;;13.50;99.90;;;;;;5096087;28;20028;-66
2022/10/27 05:09:53;;;;;;;6.82;2.60;;;13.50;99.90;;;;;;5095995;28;20032;-66
2022/10/27 05:12:19;;;;;;;5.05;2.55;;;13.50;99.90;;;;;;5096964;28;20418;-66
2022/10/27 05:14:44;;;;;;;6.38;2.70;;;13.50;99.90;;;;;;5096327;28;20032;-66
2022/10/27 05:17:10;;;;;;;7.38;2.30;;;13.50;99.90;;;;;;5096764;28;20345;-66
2022/10/27 05:19:36;;;;;;;3.88;2.20;;;13.50;99.90;;;;;;5096027;28;20365;-67
2022/10/27 05:22:02;;;;;;;5.22;2.67;;;13.50;99.90;;;;;;5095765;28;20040;-66
2022/10/27 05:24:27;;;;;;;4.40;2.28;;;13.50;99.90;;;;;;5095898;28;20043;-67
2022/10/27 05:26:53;;;;;;;6.97;2.80;;;13.40;99.90;;;;;;5095987;28;20035;-67
2022/10/27 05:29:19;;;;;;;7.25;2.67;;;13.30;99.90;;;;;;5095886;28;20365;-66
2022/10/27 05:31:45;;;;;;;4.50;2.45;;;13.30;99.90;;;;;;5096631;28;20040;-66
2022/10/27 05:34:10;;;;;;;3.58;2.40;;;13.20;99.90;;;;;;5097125;28;20040;-67
2022/10/27 05:36:36;;;;;;;6.03;2.40;;;13.20;99.90;;;;;;5096550;28;20032;-66
2022/10/27 05:39:02;;;;;;;9.70;2.42;;;13.20;99.90;;;;;;5096548;28;20423;-68
2022/10/27 05:41:28;;;;;;;5.65;2.10;;;13.20;99.90;;;;;;5078875;28;20040;-66
2022/10/27 05:43:53;;;;;;;5.72;2.50;;;13.20;99.90;;;;;;5096454;28;20055;-66
2022/10/27 05:46:19;;;;;;;5.32;2.40;;;13.20;99.90;;;;;;5095917;28;20024;-66
2022/10/27 05:48:45;;;;;;;7.85;2.92;;;13.20;99.90;;;;;;5095690;28;20032;-66
2022/10/27 05:51:11;;;;;;;4.32;2.42;;;13.30;99.90;;;;;;5095715;28;20085;-66
2022/10/27 05:53:36;;;;;;;7.03;2.60;;;13.30;99.90;;;;;;5095689;28;20036;-65
2022/10/27 05:56:02;;;;;;;9.10;2.28;;;13.30;99.90;;;;;;5098710;28;20028;-65
2022/10/27 05:58:28;;;;;;;4.53;1.95;;;13.40;99.90;;;;;;5099327;28;20083;-66
2022/10/27 06:00:58;;;;;;;4.95;2.13;;;13.50;99.90;;;;;;5099380;28;20029;-65
2022/10/27 06:03:24;;;;;;;7.07;2.20;;;13.50;99.90;;;;;;5099900;28;20044;-66
2022/10/27 06:05:51;;;;;;;6.18;2.25;;;13.50;99.90;;;;;;5099866;28;20028;-66
2022/10/27 06:08:18;;;;;;;6.15;2.20;;;13.50;99.90;;;;;;5099907;28;20039;-66
2022/10/27 06:10:44;;;;;;;3.67;1.90;;;13.50;99.90;;;;;;5099845;28;20031;-66
2022/10/27 06:13:13;;;;;;;3.22;1.77;;;13.50;99.90;;;;;;5100408;28;20039;-66
2022/10/27 06:15:39;;;;;;;2.60;1.63;;;13.50;99.90;;;;;;5099719;28;20044;-67
2022/10/27 06:18:05;;;;;;;5.18;2.20;;;13.50;99.90;;;;;;5100227;28;20069;-67
2022/10/27 06:20:31;;;;;;;5.35;1.80;;;13.60;99.90;;;;;;5098955;28;20434;-67
2022/10/27 06:22:57;;;;;;;7.72;2.10;;;13.60;99.90;;;;;;5099774;28;20028;-68
2022/10/27 06:25:23;;;;;;;4.65;1.65;;;13.60;99.90;;;;;;5082566;28;20409;-68
2022/10/27 06:27:49;;;;;;;7.10;2.15;;;13.60;99.90;;;;;;5098802;28;20036;-68
2022/10/27 06:30:15;;;;;;;3.88;1.92;;;13.60;99.90;;;;;;5098909;28;20056;-68
2022/10/27 06:32:41;;;;;;;4.28;1.88;;;13.70;99.90;;;;;;5099793;28;20043;-68
2022/10/27 06:35:09;;;;;;;2.65;1.70;;;14.10;99.90;;;;;;5099131;28;20039;-68
2022/10/27 06:37:38;;;;;;;6.15;1.85;;;14.00;99.90;;;;;;5099381;28;20027;-67
2022/10/27 06:40:06;;;;;;;5.43;1.73;;;14.00;99.90;;;;;;5082203;28;20042;-68
2022/10/27 06:42:35;;;;;;;2.60;1.70;;;13.90;99.90;;;;;;5098387;28;20036;-68
2022/10/27 06:45:02;;;;;;;3.90;1.80;;;14.00;99.90;;;;;;5099615;28;20043;-64
2022/10/27 06:47:27;;;;;;;5.38;1.92;;;14.00;99.90;;;;;;5098423;28;20059;-68
2022/10/27 06:49:53;;;;;;;3.05;1.27;;;14.00;99.90;;;;;;5098455;28;20032;-68
2022/10/27 06:52:19;;;;;;;4.32;1.35;;;14.00;99.90;;;;;;5099084;28;20431;-68
2022/10/27 06:54:45;;;;;;;4.07;1.83;;;14.00;99.90;;;;;;5099079;28;20101;-68
2022/10/27 06:57:10;;;;;;;4.43;1.55;;;14.00;99.90;;;;;;5098715;28;20446;-68
2022/10/27 06:59:36;;;;;;;4.90;1.70;;;14.00;99.90;;;;;;5098721;28;20356;-68
2022/10/27 07:02:03;;;;;;;2.15;1.30;;;14.10;99.90;;;;;;5098219;28;20127;-68
2022/10/27 07:04:29;;;;;;;3.53;1.33;;;14.10;99.90;;;;;;5081068;28;20118;-69
2022/10/27 07:06:55;;;;;;;4.60;1.48;;;14.20;99.90;;;;;;5098488;28;20070;-68
2022/10/27 07:09:21;;;;;;;3.67;1.77;;;14.20;99.90;;;;;;5098117;28;20032;-67
2022/10/27 07:11:47;;;;;;;4.40;1.55;;;14.30;99.90;;;;;;5081209;28;20165;-67
2022/10/27 07:14:13;;;;;;;2.13;1.42;;;14.30;99.90;;;;;;5099307;28;20036;-67
2022/10/27 07:16:39;;;;;;;2.17;1.25;;;14.40;99.90;;;;;;5098390;28;20051;-68
2022/10/27 07:19:04;;;;;;;2.05;1.20;;;14.40;99.90;;;;;;5098830;28;20027;-67
2022/10/27 07:21:30;;;;;;;4.70;1.20;;;14.40;99.90;;;;;;5098358;28;20036;-67
2022/10/27 07:23:56;;;;;;;6.13;1.10;;;14.50;99.90;;;;;;5098396;28;20036;-68
2022/10/27 07:26:22;;;;;;;3.25;0.93;;;14.50;99.90;;;;;;5099359;28;20039;-68
2022/10/27 07:28:47;;;;;;;1.95;1.05;;;14.60;99.90;;;;;;5081120;28;20097;-68
2022/10/27 07:31:13;;;;;;;5.00;1.10;;;14.70;99.90;;;;;;5098770;28;20027;-69
2022/10/27 07:33:39;;;;;;;3.15;0.90;;;14.70;99.90;;;;;;5098822;28;20042;-68
2022/10/27 07:36:05;;;;;;;2.97;1.00;;;14.80;99.90;;;;;;5098474;28;20386;-68
2022/10/27 07:38:31;;;;;;;5.22;1.30;;;14.90;99.90;;;;;;5080972;28;20036;-68
2022/10/27 07:40:57;;;;;;;1.83;0.80;;;15.00;99.90;;;;;;5097515;28;20092;-69
2022/10/27 07:43:23;;;;;;;2.08;1.05;;;15.10;99.90;;;;;;5098014;28;20115;-68
2022/10/27 07:45:49;;;;;;;4.80;1.05;;;15.20;99.90;;;;;;5097358;28;20028;-68
2022/10/27 07:48:15;;;;;;;7.25;1.20;;;15.30;99.90;;;;;;5097726;28;20054;-68
2022/10/27 07:50:43;;;;;;;8.13;1.50;;;15.40;99.90;;;;;;5098473;28;20085;-68
2022/10/27 07:53:09;;;;;;;4.07;1.10;;;15.50;99.90;;;;;;5098267;28;20392;-69
2022/10/27 07:55:36;;;;;;;3.92;0.95;;;15.70;99.90;;;;;;5097005;28;20071;-69
2022/10/27 07:58:06;;;;;;;4.13;1.00;;;15.90;99.90;;;;;;5096846;28;20056;-69
2022/10/27 08:00:35;;;;;;;1.75;1.00;;;16.00;99.90;;;;;;5080510;28;20038;-68
2022/10/27 08:03:02;;;;;;;2.50;1.00;;;16.00;99.90;;;;;;5097414;28;20055;-69
2022/10/27 08:05:31;;;;;;;3.65;1.10;;;16.10;99.90;;;;;;5098006;28;20032;-69
2022/10/27 08:07:59;;;;;;;5.32;1.20;;;16.30;99.90;;;;;;5081062;28;20105;-69
2022/10/27 08:10:26;;;;;;;2.20;0.82;;;16.50;99.90;;;;;;5097862;28;20020;-70
2022/10/27 08:12:52;;;;;;;2.17;0.70;;;16.60;99.90;;;;;;5097686;28;20048;-69
2022/10/27 08:15:17;;;;;;;4.95;1.23;;;16.80;99.90;;;;;;5096926;28;20028;-68
2022/10/27 08:17:43;;;;;;;2.90;0.90;;;16.70;99.90;;;;;;5096578;28;20036;-69
2022/10/27 08:20:09;;;;;;;8.05;1.58;;;16.60;99.90;;;;;;5097513;28;20474;-69
2022/10/27 08:22:35;;;;;;;2.97;0.90;;;16.60;99.90;;;;;;5079685;28;20032;-69
2022/10/27 08:25:01;;;;;;;7.68;0.93;;;16.80;99.90;;;;;;5079943;28;20348;-70
2022/10/27 08:27:27;;;;;;;3.88;0.80;;;16.80;99.90;;;;;;5096870;28;20140;-72
2022/10/27 08:29:53;;;;;;;3.35;0.80;;;16.80;99.90;;;;;;5079940;28;20036;-70
2022/10/27 08:32:19;;;;;;;3.35;0.77;;;16.90;99.90;;;;;;5096609;28;20299;-70
2022/10/27 08:34:44;;;;;;;4.82;0.95;;;17.00;99.90;;;;;;5096622;28;20040;-69
2022/10/27 08:37:10;;;;;;;3.65;0.90;;;16.80;99.90;;;;;;5097203;28;20028;-69
2022/10/27 08:39:36;;;;;;;5.05;0.93;;;16.90;99.90;;;;;;5097439;28;20040;-69
2022/10/27 08:42:03;;;;;;;3.90;1.00;;;16.90;99.90;;;;;;5079610;28;20407;-70
2022/10/27 08:44:45;;;;;;;1.70;0.90;;;17.00;99.90;;;;;;5096341;28;20024;-70
2022/10/27 08:47:18;;;;;;;2.45;1.10;;;17.10;99.90;;;;;;5096580;28;20281;-70
2022/10/27 08:50:00;;;;;;;3.63;0.82;;;17.20;99.90;;;;;;5097447;28;20024;-70
2022/10/27 08:52:35;;;;;;;3.63;0.90;;;17.30;99.90;;;;;;5097597;28;20042;-70
2022/10/27 08:55:13;;;;;;;5.82;1.30;;;17.50;99.90;;;;;;5096838;28;20028;-70
2022/10/27 08:58:01;;;;;;;4.05;1.10;;;17.80;99.90;;;;;;5096374;28;20051;-70
2022/10/27 09:00:29;;;;;;;3.90;1.00;;;17.80;99.90;;;;;;5097253;28;20035;-70
2022/10/27 09:03:12;;;;;;;3.20;0.90;;;17.90;99.90;;;;;;5096875;28;20028;-70
2022/10/27 09:05:57;;;;;;;1.67;0.77;;;18.00;99.90;;;;;;5097083;28;20118;-70
2022/10/27 09:08:41;;;;;;;4.82;1.10;;;18.00;99.90;;;;;;5097220;28;20032;-71
2022/10/27 09:11:40;;;;;;;2.72;0.95;;;18.00;99.90;;;;;;5098303;28;20063;-70
2022/10/27 09:14:32;;;;;;;5.38;1.10;;;18.00;99.90;;;;;;5096366;28;20040;-71
2022/10/27 09:17:01;;;;;;;1.45;0.70;;;18.00;99.90;;;;;;5097125;28;20365;-70
2022/10/27 09:19:34;;;;;;;3.75;0.77;;;18.00;99.90;;;;;;5096281;28;20055;-70
2022/10/27 09:22:03;;;;;;;3.08;1.17;;;18.10;99.90;;;;;;5097131;28;20032;-70
2022/10/27 09:24:33;;;;;;;2.05;0.75;;;18.30;99.90;;;;;;5096764;28;20086;-70
2022/10/27 09:27:01;;;;;;;2.97;0.90;;;18.60;99.90;;;;;;5079175;28;20307;-71
2022/10/27 09:29:30;;;;;;;3.33;0.75;;;18.90;99.90;;;;;;5095993;28;20060;-70
2022/10/27 09:32:24;;;;;;;4.40;1.10;;;18.90;99.90;;;;;;5100935;28;20036;-71
2022/10/27 09:35:00;;;;;;;5.20;1.10;;;19.00;99.90;;;;;;5100768;28;20119;-72
2022/10/27 09:37:27;;;;;;;5.35;1.00;;;19.20;99.90;;;;;;5101262;28;20028;-68
2022/10/27 09:39:53;;;;;;;4.63;0.93;;;19.30;99.90;;;;;;5100903;28;20039;-70
2022/10/27 09:42:20;;;;;;;3.55;0.90;;;19.20;99.90;;;;;;5100646;28;20043;-71
2022/10/27 09:45:00;;;;;;;2.13;0.95;;;19.20;99.90;;;;;;5100742;28;20116;-70
2022/10/27 09:47:31;;;;;;;3.88;1.33;;;19.40;99.90;;;;;;5099979;28;20081;-70
2022/10/27 09:49:57;;;;;;;3.15;1.10;;;19.50;99.90;;;;;;5100136;28;20123;-70
2022/10/27 09:52:27;;;;;;;3.25;1.10;;;19.50;99.90;;;;;;5100646;28;20028;-70
2022/10/27 09:54:55;;;;;;;7.47;1.52;;;19.50;99.90;;;;;;5101123;28;20073;-71
2022/10/27 09:57:26;;;;;;;6.55;1.00;;;19.60;99.90;;;;;;5099876;28;20048;-70
2022/10/27 10:00:01;;;;;;;3.13;1.15;;;19.80;99.90;;;;;;5100579;28;20361;-71
2022/10/27 10:02:35;;;;;;;4.75;1.17;;;20.00;99.90;;;;;;5100802;28;20024;-70
2022/10/27 10:05:16;;;;;;;4.05;1.15;;;20.20;99.90;;;;;;5100285;28;20022;-71
2022/10/27 10:07:43;;;;;;;4.00;0.88;;;20.40;99.90;;;;;;5099807;28;20038;-70
2022/10/27 10:10:21;;;;;;;5.72;0.88;;;20.60;99.90;;;;;;5099574;28;20073;-70
2022/10/27 10:13:09;;;;;;;4.50;1.10;;;20.70;99.90;;;;;;5100606;28;20028;-70
2022/10/27 10:15:44;;;;;;;1.90;0.90;;;20.50;99.90;;;;;;5099631;28;20056;-70
2022/10/27 10:18:38;;;;;;;3.70;1.10;;;20.30;99.90;;;;;;5100074;28;20065;-70
2022/10/27 10:21:07;;;;;;;7.03;1.50;;;20.50;99.90;;;;;;5096907;28;20040;-70
2022/10/27 10:23:47;;;;;;;3.85;0.82;;;20.50;99.90;;;;;;5099777;28;20060;-70
2022/10/27 10:26:28;;;;;;;5.85;1.40;;;20.60;99.90;;;;;;5099093;28;20039;-70
2022/10/27 10:29:04;;;;;;;4.90;1.00;;;20.50;99.90;;;;;;5082165;28;20032;-70
2022/10/27 10:31:30;;;;;;;4.93;1.52;;;20.30;99.90;;;;;;5099428;28;20092;-69
2022/10/27 10:34:23;;;;;;;2.75;1.10;;;20.30;99.90;;;;;;5099847;28;20403;-69
2022/10/27 10:36:49;;;;;;;4.88;1.40;;;20.30;99.90;;;;;;5099978;28;20395;-71
2022/10/27 10:39:28;;;;;;;5.90;1.30;;;20.50;99.90;;;;;;5099461;28;20028;-70
2022/10/27 10:42:09;;;;;;;5.43;1.27;;;20.70;99.90;;;;;;5099488;28;20082;-69
2022/10/27 10:44:36;;;;;;;4.55;1.23;;;20.70;99.90;;;;;;5099476;28;20051;-70
2022/10/27 10:47:03;;;;;;;5.47;1.48;;;21.10;99.90;;;;;;5099556;28;20115;-70
2022/10/27 10:49:36;;;;;;;3.70;1.60;;;21.60;99.90;;;;;;5099991;28;20074;-70
2022/10/27 10:52:22;;;;;;;6.88;1.50;;;21.70;99.90;;;;;;5099099;28;20024;-69
2022/10/27 10:54:48;;;;;;;5.32;1.40;;;21.90;99.90;;;;;;5098545;28;20028;-69
2022/10/27 10:57:33;;;;;;;8.18;1.50;;;21.80;99.90;;;;;;5098956;28;20364;-69
2022/10/27 10:59:59;;;;;;;3.22;1.50;;;21.40;99.90;;;;;;5099172;28;20028;-69
2022/10/27 11:02:28;;;;;;;3.38;1.42;;;21.20;99.90;;;;;;5098284;28;20044;-70
2022/10/27 11:05:10;;;;;;;5.32;1.50;;;20.90;99.90;;;;;;5098196;28;20085;-70
2022/10/27 11:07:36;;;;;;;5.33;1.53;;;20.80;99.90;;;;;;5098866;28;20024;-70
2022/10/27 11:10:14;;;;;;;4.22;1.60;;;20.80;99.90;;;;;;5098726;28;20039;-70
2022/10/27 11:12:48;;;;;;;4.72;1.40;;;21.30;99.90;;;;;;5099032;28;20403;-70
2022/10/27 11:15:16;;;;;;;4.55;1.60;;;21.60;99.90;;;;;;5098059;28;20027;-70
2022/10/27 11:17:44;;;;;;;5.93;1.60;;;21.50;99.90;;;;;;5098711;28;20454;-67
2022/10/27 11:20:21;;;;;;;8.15;1.80;;;21.80;99.90;;;;;;5098508;28;20044;-67
2022/10/27 11:22:50;;;;;;;9.00;1.55;;;22.30;99.90;;;;;;5098743;28;20036;-68
2022/10/27 11:25:23;;;;;;;8.75;1.83;;;22.70;99.90;;;;;;5098178;28;20099;-67
2022/10/27 11:28:00;;;;;;;5.88;1.85;;;22.20;99.90;;;;;;5098746;28;20111;-71
2022/10/27 11:30:27;;;;;;;3.65;1.60;;;22.10;99.90;;;;;;5097922;28;20031;-70
2022/10/27 11:33:24;;;;;;;5.53;1.60;;;22.40;99.90;;;;;;5098414;28;20039;-70
2022/10/27 11:36:13;;;;;;;7.75;2.00;;;22.60;99.90;;;;;;5097740;28;20428;-70
2022/10/27 11:39:05;;;;;;;6.22;1.70;;;22.60;99.90;;;;;;5087508;28;20039;-70
2022/10/27 11:41:46;;;;;;;5.35;1.73;;;22.30;99.90;;;;;;5097655;28;20356;-70
2022/10/27 11:44:39;;;;;;;5.80;1.95;;;21.90;99.90;;;;;;5098291;28;20291;-70
2022/10/27 11:47:11;;;;;;;8.63;1.75;;;22.10;99.90;;;;;;5097655;28;20382;-70
2022/10/27 11:50:02;;;;;;;7.32;2.33;;;22.00;99.90;;;;;;5097688;28;20020;-70
2022/10/27 11:52:39;;;;;;;6.22;1.80;;;21.80;99.90;;;;;;5097812;28;20272;-70
2022/10/27 11:55:08;;;;;;;5.45;1.83;;;21.80;99.90;;;;;;5097227;28;20036;-70
2022/10/27 11:58:05;;;;;;;7.13;1.85;;;21.80;99.90;;;;;;5097987;28;20058;-70
2022/10/27 12:00:43;;;;;;;8.52;1.92;;;21.60;99.90;;;;;;5097312;28;20036;-70
2022/10/27 12:03:47;;;;;;;13.70;2.92;;;21.50;99.90;;;;;;5098091;28;20089;-70
2022/10/27 12:06:31;;;;;;;7.97;1.73;;;21.40;99.90;;;;;;5097791;28;20104;-70
2022/10/27 12:09:06;;;;;;;10.88;2.50;;;21.20;99.90;;;;;;5098022;28;20028;-70
2022/10/27 12:11:47;;;;;;;17.77;2.30;;;21.20;99.90;;;;;;5097654;28;20089;-70
2022/10/27 12:14:22;;;;;;;11.02;2.50;;;21.20;99.90;;;;;;5097591;28;20043;-71
2022/10/27 12:16:51;;;;;;;6.18;1.98;;;21.50;99.90;;;;;;5097361;28;20039;-70
2022/10/27 12:19:36;;;;;;;8.50;2.13;;;21.30;99.90;;;;;;5097324;28;20292;-70
2022/10/27 12:22:18;;;;;;;7.10;2.05;;;21.30;99.90;;;;;;5097627;28;20396;-70
2022/10/27 12:25:20;;;;;;;6.17;1.93;;;21.40;99.90;;;;;;5097745;28;20099;-70
2022/10/27 12:27:49;;;;;;;5.60;2.10;;;21.80;99.90;;;;;;5096756;28;20036;-71
2022/10/27 12:30:18;;;;;;;11.00;2.45;;;22.20;99.90;;;;;;5079904;28;20020;-71
2022/10/27 12:32:54;;;;;;;6.35;1.80;;;22.30;99.90;;;;;;5096509;28;20036;-69
2022/10/27 12:35:24;;;;;;;7.28;2.28;;;22.20;99.90;;;;;;5097409;28;20055;-69
2022/10/27 12:38:13;;;;;;;9.10;2.22;;;22.50;99.90;;;;;;5096431;28;20035;-70
2022/10/27 12:40:53;;;;;;;6.28;1.95;;;22.70;99.90;;;;;;5097171;28;20107;-68
2022/10/27 12:43:27;;;;;;;10.23;2.05;;;22.80;99.90;;;;;;5097272;28;20350;-69
2022/10/27 12:46:03;;;;;;;4.00;1.80;;;22.70;99.90;;;;;;5079295;28;20031;-71
2022/10/27 12:48:36;;;;;;;5.70;1.83;;;22.50;99.90;;;;;;5097029;28;20342;-69
2022/10/27 12:51:40;;;;;;;9.07;2.17;;;22.10;99.90;;;;;;5097231;28;20024;-70
2022/10/27 12:54:39;;;;;;;5.63;2.10;;;22.30;99.90;;;;;;5097062;28;20114;-70
2022/10/27 12:57:23;;;;;;;6.70;2.20;;;22.60;99.90;;;;;;5079266;28;20044;-69
2022/10/27 12:59:58;;;;;;;9.88;2.30;;;22.70;99.90;;;;;;5096114;28;20020;-69
2022/10/27 13:02:29;;;;;;;10.60;2.33;;;22.40;99.90;;;;;;5096869;28;20036;-69
2022/10/27 13:05:14;;;;;;;10.57;2.38;;;22.30;99.90;;;;;;5100780;28;20050;-69
2022/10/27 13:07:53;;;;;;;14.85;3.40;;;22.30;99.90;;;;;;5104006;28;20051;-69